Time;durP1;ratioP1;P1;durP2;ratioP2;P2;SDS_P1;SDS_P2;PMS_P1;PMS_P2;Temp;Humidity;BMP_temperature;BMP_pressure;BME280_temperature;BME280_humidity;BME280_pressure;Samples;Min_cycle;Max_cycle;Signal;HPM_P1;HPM_P2
2023/12/12 00:02:01;;;;;;;1.10;0.30;;;;;;;-6.59;66.12;100393.78;5075809;28;20036;-71
2023/12/12 00:04:33;;;;;;;1.95;0.88;;;;;;;-6.40;66.86;100406.94;5059385;28;20040;-69
2023/12/12 00:07:01;;;;;;;0.73;0.30;;;;;;;-6.71;66.58;100316.19;5044277;28;20094;-70
2023/12/12 00:09:26;;;;;;;2.72;0.65;;;;;;;-6.16;66.16;100393.31;5077903;28;20556;-71
2023/12/12 00:11:54;;;;;;;2.80;0.85;;;;;;;-6.24;66.61;100378.47;5045586;28;20063;-70
2023/12/12 00:14:20;;;;;;;2.92;0.93;;;;;;;-6.60;65.72;100323.66;5059616;28;20040;-71
2023/12/12 00:16:51;;;;;;;1.88;1.02;;;;;;;-6.18;66.35;100431.22;5063500;28;20039;-70
2023/12/12 00:19:17;;;;;;;0.93;0.65;;;;;;;-6.34;66.44;100393.81;5078611;28;20032;-72
2023/12/12 00:21:53;;;;;;;1.20;0.73;;;;;;;-6.10;66.05;100414.91;5078639;28;20104;-73
2023/12/12 00:24:25;;;;;;;0.93;0.85;;;;;;;-6.06;66.45;100428.66;5076256;28;20039;-70
2023/12/12 00:26:55;;;;;;;3.08;1.08;;;;;;;-6.05;66.61;100400.84;5082532;28;20075;-73
2023/12/12 00:29:24;;;;;;;3.53;1.80;;;;;;;-6.14;66.63;100362.25;5050663;28;20126;-69
2023/12/12 00:31:50;;;;;;;2.67;0.63;;;;;;;-5.82;65.88;100404.00;5059359;28;20040;-70
2023/12/12 00:34:16;;;;;;;1.25;0.63;;;;;;;-5.94;65.90;100403.22;5075244;28;20043;-71
2023/12/12 00:36:42;;;;;;;1.58;0.70;;;;;;;-6.21;65.93;100357.53;5092163;28;20036;-68
2023/12/12 00:39:11;;;;;;;2.92;1.45;;;;;;;-6.51;66.85;100296.44;5058308;28;20527;-71
2023/12/12 00:41:39;;;;;;;2.33;0.73;;;;;;;-6.07;66.27;100350.84;5073742;28;20051;-68
2023/12/12 00:44:07;;;;;;;1.33;0.60;;;;;;;-6.16;66.07;100345.16;5072347;28;20541;-70
2023/12/12 00:46:35;;;;;;;1.40;0.80;;;;;;;-6.24;65.74;100367.44;5074634;28;20032;-70
2023/12/12 00:49:15;;;;;;;4.85;0.90;;;;;;;-6.22;66.05;100393.78;5076524;28;20060;-71
2023/12/12 00:51:41;;;;;;;1.35;0.95;;;;;;;-6.21;66.39;100373.63;5047767;28;20155;-70
2023/12/12 00:54:12;;;;;;;1.20;0.43;;;;;;;-6.13;66.26;100360.56;5055920;28;20585;-70
2023/12/12 00:56:41;;;;;;;2.03;1.13;;;;;;;-6.02;65.25;100411.97;5056899;28;20043;-68
2023/12/12 00:59:10;;;;;;;1.17;0.50;;;;;;;-6.86;65.43;100305.03;5071113;28;20032;-70
2023/12/12 01:01:42;;;;;;;2.35;1.00;;;;;;;-6.56;65.74;100369.53;5043187;28;20043;-70
2023/12/12 01:04:11;;;;;;;0.80;0.77;;;;;;;-6.85;65.03;100312.75;5072452;28;20044;-71
2023/12/12 01:06:40;;;;;;;0.75;0.43;;;;;;;-6.76;66.19;100307.44;5072913;28;20032;-71
2023/12/12 01:09:07;;;;;;;0.65;0.55;;;;;;;-6.14;65.51;100412.03;5063734;28;20329;-71
2023/12/12 01:11:35;;;;;;;1.75;0.75;;;;;;;-6.67;65.75;100335.88;5071424;28;20574;-70
2023/12/12 01:14:05;;;;;;;2.13;1.17;;;;;;;-6.43;66.11;100371.28;5073050;28;20045;-71
2023/12/12 01:16:34;;;;;;;1.55;0.77;;;;;;;-6.57;65.03;100349.19;5056137;28;20037;-69
2023/12/12 01:19:12;;;;;;;2.20;1.00;;;;;;;-6.46;66.06;100396.38;5055699;28;20404;-70
2023/12/12 01:21:38;;;;;;;1.75;0.70;;;;;;;-6.65;65.92;100346.16;5058421;28;20101;-69
2023/12/12 01:24:18;;;;;;;2.25;1.27;;;;;;;-6.40;66.80;100373.16;5056813;28;20549;-71
2023/12/12 01:26:45;;;;;;;1.10;0.57;;;;;;;-6.48;66.42;100339.69;5056669;28;20040;-68
2023/12/12 01:29:32;;;;;;;0.55;0.45;;;;;;;-6.25;65.47;100388.50;5086324;28;20558;-69
2023/12/12 01:31:58;;;;;;;2.05;0.98;;;;;;;-6.56;65.52;100356.88;5071889;28;20465;-70
2023/12/12 01:34:24;;;;;;;1.05;0.55;;;;;;;-6.36;66.29;100403.84;5074121;28;20464;-70
2023/12/12 01:36:53;;;;;;;1.38;0.52;;;;;;;-6.54;65.96;100395.00;5073494;28;20040;-69
2023/12/12 01:39:19;;;;;;;1.13;0.40;;;;;;;-6.40;66.12;100391.75;5075138;28;20032;-70
2023/12/12 01:41:49;;;;;;;1.98;0.52;;;;;;;-6.48;66.04;100362.47;5040760;28;20039;-69
2023/12/12 01:44:17;;;;;;;2.95;1.05;;;;;;;-6.44;66.10;100354.31;5046480;28;20145;-70
2023/12/12 01:46:45;;;;;;;0.95;0.63;;;;;;;-6.31;66.16;100365.28;5072755;28;20037;-71
2023/12/12 01:49:18;;;;;;;1.52;0.70;;;;;;;-6.32;66.35;100330.59;5055224;28;20073;-71
2023/12/12 01:51:48;;;;;;;0.82;0.70;;;;;;;-6.33;65.23;100319.56;5051597;28;20079;-69
2023/12/12 01:54:18;;;;;;;1.10;0.65;;;;;;;-6.86;65.17;100282.25;5086694;28;20052;-69
2023/12/12 01:56:50;;;;;;;4.90;1.58;;;;;;;-6.47;65.27;100364.22;5078312;28;20048;-71
2023/12/12 01:59:21;;;;;;;1.52;0.65;;;;;;;-6.57;66.63;100318.81;5073346;28;20496;-71
2023/12/12 02:01:52;;;;;;;0.83;0.73;;;;;;;-6.17;65.34;100367.09;5079518;28;20036;-69
2023/12/12 02:04:19;;;;;;;2.50;0.80;;;;;;;-6.66;65.47;100351.97;5078193;28;20036;-69
2023/12/12 02:06:53;;;;;;;1.17;0.70;;;;;;;-6.80;65.41;100351.03;5074708;28;20048;-70
2023/12/12 02:09:20;;;;;;;0.70;0.50;;;;;;;-6.91;66.08;100321.53;5079464;28;20036;-70
2023/12/12 02:11:50;;;;;;;1.27;0.68;;;;;;;-7.03;65.82;100293.72;5079244;28;20036;-71
2023/12/12 02:14:19;;;;;;;1.30;0.60;;;;;;;-6.64;66.66;100362.19;5050201;28;20056;-70
2023/12/12 02:17:00;;;;;;;4.82;1.17;;;;;;;-6.57;66.33;100336.53;5060929;28;20044;-68
2023/12/12 02:19:28;;;;;;;2.45;0.82;;;;;;;-6.94;66.44;100245.41;5092968;28;20127;-70
2023/12/12 02:21:59;;;;;;;1.15;0.60;;;;;;;-6.56;66.02;100330.69;5081374;28;20520;-69
2023/12/12 02:24:25;;;;;;;6.13;1.35;;;;;;;-6.45;65.52;100346.63;5061183;28;20063;-68
2023/12/12 02:26:52;;;;;;;0.55;0.40;;;;;;;-6.28;66.49;100368.00;5059673;28;20040;-71
2023/12/12 02:29:25;;;;;;;1.05;0.65;;;;;;;-6.55;66.04;100310.53;5062431;28;20063;-70
2023/12/12 02:31:51;;;;;;;3.88;0.60;;;;;;;-6.24;66.96;100337.03;5044916;28;20063;-69
2023/12/12 02:34:21;;;;;;;2.63;1.25;;;;;;;-6.73;64.68;100292.41;5061757;28;20040;-70
2023/12/12 02:36:47;;;;;;;4.07;1.13;;;;;;;-6.55;66.23;100319.78;5079173;28;20044;-70
2023/12/12 02:39:13;;;;;;;1.50;0.90;;;;;;;-6.08;66.93;100354.16;5053464;28;20059;-69
2023/12/12 02:41:49;;;;;;;1.17;0.70;;;;;;;-6.26;66.00;100326.81;5076620;28;20086;-69
2023/12/12 02:44:18;;;;;;;2.47;0.82;;;;;;;-6.42;66.56;100312.25;5059502;28;20110;-70
2023/12/12 02:46:52;;;;;;;0.52;0.40;;;;;;;-6.26;65.90;100348.72;5061257;28;20051;-69
2023/12/12 02:49:22;;;;;;;1.55;1.02;;;;;;;-6.66;65.47;100294.59;5060645;28;20074;-71
2023/12/12 02:51:49;;;;;;;1.83;1.00;;;;;;;-6.62;66.38;100330.28;5078092;28;20045;-70
2023/12/12 02:54:28;;;;;;;0.82;0.68;;;;;;;-6.77;66.56;100284.53;5067754;28;20036;-71
2023/12/12 02:56:58;;;;;;;1.95;0.70;;;;;;;-6.65;66.41;100310.69;5045120;28;20051;-71
2023/12/12 02:59:27;;;;;;;1.15;0.60;;;;;;;-6.58;65.42;100333.09;5076356;28;20483;-69
2023/12/12 03:01:53;;;;;;;1.10;0.60;;;;;;;-6.44;66.49;100339.13;5077450;28;20044;-71
2023/12/12 03:04:19;;;;;;;1.30;0.63;;;;;;;-6.29;66.32;100363.75;5059623;28;20093;-71
2023/12/12 03:06:51;;;;;;;4.03;1.73;;;;;;;-6.52;66.38;100336.06;5044557;28;20036;-70
2023/12/12 03:09:17;;;;;;;1.38;0.63;;;;;;;-6.38;66.94;100354.75;5042247;28;20037;-71
2023/12/12 03:11:46;;;;;;;1.48;0.73;;;;;;;-6.50;66.56;100318.44;5077632;28;20063;-70
2023/12/12 03:14:29;;;;;;;0.95;0.60;;;;;;;-6.79;66.64;100265.81;5064125;28;20040;-71
2023/12/12 03:17:01;;;;;;;0.85;0.65;;;;;;;-6.27;66.97;100324.16;5078090;28;20105;-70
2023/12/12 03:19:28;;;;;;;1.45;1.25;;;;;;;-6.34;66.69;100306.81;5076992;28;20051;-72
2023/12/12 03:21:56;;;;;;;1.60;1.20;;;;;;;-6.54;66.92;100291.16;5048295;28;20048;-71
2023/12/12 03:24:23;;;;;;;5.80;1.20;;;;;;;-6.30;67.27;100298.66;5056363;28;20072;-71
2023/12/12 03:26:55;;;;;;;3.10;0.93;;;;;;;-6.75;66.56;100234.88;5058356;28;20197;-71
2023/12/12 03:29:24;;;;;;;0.40;0.32;;;;;;;-6.55;66.02;100299.53;5058798;28;20510;-71
2023/12/12 03:31:50;;;;;;;0.77;0.45;;;;;;;-6.74;66.83;100259.41;5059784;28;20515;-71
2023/12/12 03:34:22;;;;;;;0.47;0.47;;;;;;;-6.20;67.00;100331.41;5067015;28;20055;-71
2023/12/12 03:36:51;;;;;;;1.27;0.80;;;;;;;-6.26;66.91;100285.38;5060719;28;20102;-72
2023/12/12 03:39:21;;;;;;;1.05;0.70;;;;;;;-6.39;66.04;100277.00;5069077;28;20029;-70
2023/12/12 03:41:52;;;;;;;1.70;0.98;;;;;;;-6.45;66.95;100265.56;5061746;28;20233;-71
2023/12/12 03:44:20;;;;;;;1.60;1.50;;;;;;;-6.28;66.67;100280.25;5059090;28;20036;-71
2023/12/12 03:46:46;;;;;;;3.58;1.00;;;;;;;-6.16;66.38;100294.47;5058961;28;20069;-72
2023/12/12 03:49:19;;;;;;;0.60;0.60;;;;;;;-6.07;66.67;100312.84;5078514;28;20082;-71
2023/12/12 03:51:55;;;;;;;2.00;1.20;;;;;;;-6.03;65.62;100324.03;5062018;28;20055;-71
2023/12/12 03:54:21;;;;;;;2.92;1.55;;;;;;;-6.19;66.72;100302.78;5076829;28;20040;-70
2023/12/12 03:56:57;;;;;;;1.55;1.15;;;;;;;-6.62;65.50;100267.88;5078637;28;20048;-69
2023/12/12 03:59:23;;;;;;;0.40;0.40;;;;;;;-6.73;66.91;100274.69;5073778;28;20029;-68
2023/12/12 04:01:54;;;;;;;3.08;1.20;;;;;;;-6.64;66.47;100273.59;5045125;28;20046;-68
2023/12/12 04:04:26;;;;;;;0.90;0.68;;;;;;;-6.28;66.42;100317.34;5057057;28;20032;-68
2023/12/12 04:06:58;;;;;;;1.13;0.70;;;;;;;-6.33;66.48;100314.50;5076638;28;20040;-70
2023/12/12 04:09:36;;;;;;;3.03;1.45;;;;;;;-6.38;66.66;100296.47;5072836;28;20036;-70
2023/12/12 04:12:07;;;;;;;3.25;1.35;;;;;;;-6.42;66.09;100321.50;5072897;28;20036;-69
2023/12/12 04:14:33;;;;;;;2.95;2.38;;;;;;;-6.96;66.70;100228.50;5074412;28;20521;-70
2023/12/12 04:17:03;;;;;;;2.42;1.38;;;;;;;-6.90;66.37;100229.66;5077327;28;20040;-69
2023/12/12 04:19:35;;;;;;;1.15;0.68;;;;;;;-6.94;66.99;100190.63;5077550;28;20039;-70
2023/12/12 04:22:01;;;;;;;2.45;1.33;;;;;;;-6.25;66.95;100292.22;5077225;28;20131;-70
2023/12/12 04:24:28;;;;;;;3.78;2.15;;;;;;;-6.06;67.36;100304.47;5075576;28;20035;-69
2023/12/12 04:26:54;;;;;;;3.17;1.50;;;;;;;-6.01;67.31;100284.47;5091131;28;20035;-69
2023/12/12 04:29:23;;;;;;;5.60;2.40;;;;;;;-5.86;67.37;100315.00;5074187;28;20067;-70
2023/12/12 04:31:50;;;;;;;4.40;1.40;;;;;;;-5.85;67.01;100296.47;5074777;28;20632;-70
2023/12/12 04:34:21;;;;;;;7.53;1.50;;;;;;;-6.19;67.14;100238.56;5074176;28;20032;-70
2023/12/12 04:36:48;;;;;;;3.88;1.85;;;;;;;-5.90;66.66;100293.63;5076071;28;20050;-71
2023/12/12 04:39:17;;;;;;;2.15;1.00;;;;;;;-6.01;66.74;100294.63;5075178;28;20032;-70
2023/12/12 04:41:44;;;;;;;4.47;1.45;;;;;;;-6.00;67.03;100291.31;5050453;28;20037;-71
2023/12/12 04:44:10;;;;;;;1.42;0.68;;;;;;;-6.19;66.85;100266.44;5051873;28;20041;-71
2023/12/12 04:46:39;;;;;;;2.03;1.10;;;;;;;-5.88;67.47;100316.53;5074298;28;20032;-71
2023/12/12 04:49:09;;;;;;;0.98;0.73;;;;;;;-5.88;67.42;100289.56;5075663;28;20040;-70
2023/12/12 04:51:35;;;;;;;2.03;1.20;;;;;;;-5.97;67.05;100268.66;5076694;28;20035;-70
2023/12/12 04:54:06;;;;;;;3.08;1.15;;;;;;;-5.80;67.80;100284.97;5061059;28;20043;-70
2023/12/12 04:56:36;;;;;;;2.08;1.35;;;;;;;-5.77;66.77;100302.91;5080299;28;20051;-69
2023/12/12 04:59:12;;;;;;;2.15;1.30;;;;;;;-5.94;67.42;100296.75;5051158;28;20032;-71
2023/12/12 05:01:38;;;;;;;;;;;;;;;-5.80;68.13;100301.03;5065913;28;20043;-71
2023/12/12 05:04:05;;;;;;;0.82;0.50;;;;;;;-5.63;68.39;100309.75;5059210;28;20280;-70
2023/12/12 05:06:31;;;;;;;3.33;1.35;;;;;;;-5.71;67.54;100277.06;5057970;28;20051;-69
2023/12/12 05:08:57;;;;;;;1.50;0.52;;;;;;;-5.65;67.54;100316.38;5074705;28;20044;-71
2023/12/12 05:11:23;;;;;;;4.95;1.67;;;;;;;-5.89;66.99;100290.31;5042734;28;20135;-68
2023/12/12 05:13:52;;;;;;;2.38;1.10;;;;;;;-5.88;67.05;100309.84;5075372;28;20048;-73
2023/12/12 05:16:19;;;;;;;1.88;1.20;;;;;;;-6.46;67.97;100206.44;5066435;28;20046;-71
2023/12/12 05:18:45;;;;;;;3.38;1.75;;;;;;;-6.23;66.84;100260.25;5057728;28;20138;-70
2023/12/12 05:21:11;;;;;;;3.70;1.75;;;;;;;-6.80;67.62;100206.75;5074958;28;20058;-70
2023/12/12 05:23:38;;;;;;;4.10;1.80;;;;;;;-6.17;68.51;100306.28;5059465;28;20064;-70
2023/12/12 05:26:22;;;;;;;1.60;0.88;;;;;;;-6.09;68.39;100324.53;5077606;28;20123;-70
2023/12/12 05:28:54;;;;;;;6.65;1.15;;;;;;;-6.09;67.99;100322.00;5059126;28;20071;-71
2023/12/12 05:31:24;;;;;;;5.57;2.70;;;;;;;-6.04;68.60;100325.72;5081931;28;20075;-70
2023/12/12 05:33:53;;;;;;;2.88;1.13;;;;;;;-5.71;69.01;100325.25;5080811;28;20048;-72
2023/12/12 05:36:19;;;;;;;4.10;1.08;;;;;;;-5.71;68.93;100315.97;5079566;28;20047;-71
2023/12/12 05:38:51;;;;;;;3.20;1.88;;;;;;;-5.69;69.15;100294.13;5062635;28;20053;-71
2023/12/12 05:41:25;;;;;;;1.65;1.10;;;;;;;-5.93;68.24;100268.94;5051820;28;20063;-71
2023/12/12 05:43:54;;;;;;;4.18;1.95;;;;;;;-5.71;68.53;100325.25;5047228;28;20040;-71
2023/12/12 05:46:20;;;;;;;0.73;0.47;;;;;;;-5.82;68.05;100337.22;5062435;28;20119;-70
2023/12/12 05:48:52;;;;;;;1.35;0.75;;;;;;;-6.05;67.67;100309.63;5081125;28;20040;-72
2023/12/12 05:51:23;;;;;;;2.95;1.10;;;;;;;-6.55;68.16;100232.03;5055516;28;20127;-71
2023/12/12 05:53:51;;;;;;;1.70;1.08;;;;;;;-5.88;68.47;100325.03;5049425;28;20273;-70
2023/12/12 05:56:18;;;;;;;2.13;1.00;;;;;;;-5.87;68.05;100342.00;5061411;28;20048;-70
2023/12/12 05:58:44;;;;;;;0.47;0.47;;;;;;;-5.90;68.21;100345.19;5093473;28;20127;-71
2023/12/12 06:01:11;;;;;;;1.35;0.80;;;;;;;-5.80;69.13;100343.28;5080217;28;20436;-68
2023/12/12 06:03:36;;;;;;;2.40;1.17;;;;;;;-5.94;68.35;100312.81;5066800;28;20036;-71
2023/12/12 06:06:22;;;;;;;2.13;1.38;;;;;;;-5.94;69.15;100299.28;5079055;28;20046;-71
2023/12/12 06:08:48;;;;;;;1.98;0.93;;;;;;;-6.27;68.13;100266.78;5092857;28;20036;-70
2023/12/12 06:11:16;;;;;;;6.22;2.83;;;;;;;-5.67;68.71;100342.44;5051012;28;20067;-71
2023/12/12 06:13:42;;;;;;;6.05;2.83;;;;;;;-6.10;69.17;100252.69;5080677;28;20086;-69
2023/12/12 06:16:16;;;;;;;3.70;1.77;;;;;;;-5.89;68.60;100285.25;5062079;28;20036;-70
2023/12/12 06:18:42;;;;;;;4.63;2.08;;;;;;;-6.11;67.73;100248.41;5077914;28;20070;-76
2023/12/12 06:21:17;;;;;;;4.32;1.98;;;;;;;-5.68;69.24;100313.63;5082599;28;20040;-77
2023/12/12 06:23:43;;;;;;;1.98;0.82;;;;;;;-5.41;68.78;100325.47;5057318;28;20055;-73
2023/12/12 06:26:09;;;;;;;4.13;2.25;;;;;;;-5.32;68.55;100346.34;5063936;28;20068;-68
2023/12/12 06:28:35;;;;;;;3.05;1.80;;;;;;;-5.37;68.07;100352.78;5048713;28;20113;-65
2023/12/12 06:31:01;;;;;;;3.15;1.33;;;;;;;-5.63;67.96;100319.03;5061696;28;20040;-66
2023/12/12 06:33:30;;;;;;;5.68;1.92;;;;;;;-5.51;68.02;100355.31;5074296;28;20094;-69
2023/12/12 06:35:58;;;;;;;1.30;1.00;;;;;;;-5.58;68.39;100344.69;5045083;28;20038;-70
2023/12/12 06:38:28;;;;;;;4.90;0.80;;;;;;;-5.68;67.09;100339.00;5079228;28;20047;-67
2023/12/12 06:41:00;;;;;;;3.63;1.42;;;;;;;-6.35;68.28;100252.72;5059507;28;20058;-67
2023/12/12 06:43:31;;;;;;;4.18;1.67;;;;;;;-5.70;68.24;100357.44;5060580;28;20545;-68
2023/12/12 06:45:57;;;;;;;2.40;1.07;;;;;;;-5.86;68.02;100332.72;5079635;28;20134;-67
2023/12/12 06:48:23;;;;;;;4.60;2.15;;;;;;;-5.69;67.69;100354.13;5075673;28;20759;-67
2023/12/12 06:50:52;;;;;;;2.30;1.00;;;;;;;-5.72;67.88;100331.97;5077350;28;20042;-68
2023/12/12 06:53:19;;;;;;;4.28;1.45;;;;;;;-5.47;68.17;100353.84;5080933;28;20040;-66
2023/12/12 06:55:48;;;;;;;2.50;1.35;;;;;;;-5.28;69.03;100345.75;5060177;28;20072;-66
2023/12/12 06:58:24;;;;;;;5.03;2.22;;;;;;;-5.57;67.83;100306.72;5062264;28;20136;-66
2023/12/12 07:00:53;;;;;;;4.40;1.05;;;;;;;-6.24;67.67;100213.78;5078599;28;20127;-66
2023/12/12 07:03:19;;;;;;;4.07;1.75;;;;;;;-5.40;68.13;100337.34;5061077;28;20039;-66
2023/12/12 07:05:50;;;;;;;2.85;1.23;;;;;;;-5.37;66.94;100332.47;5044323;28;20042;-66
2023/12/12 07:08:20;;;;;;;1.73;1.00;;;;;;;-5.46;67.60;100336.22;5078893;28;20036;-66
2023/12/12 07:10:49;;;;;;;7.18;1.42;;;;;;;-5.58;67.46;100317.66;5061218;28;20044;-66
2023/12/12 07:13:18;;;;;;;1.38;1.20;;;;;;;-5.29;68.01;100364.31;5077321;28;20043;-68
2023/12/12 07:15:44;;;;;;;3.58;1.35;;;;;;;-5.40;67.43;100310.34;5076993;28;20040;-69
2023/12/12 07:18:12;;;;;;;2.00;0.80;;;;;;;-5.20;67.31;100356.41;5040796;28;20101;-67
2023/12/12 07:20:39;;;;;;;3.00;1.70;;;;;;;-5.30;67.77;100334.63;5051081;28;20040;-66
2023/12/12 07:23:10;;;;;;;0.95;0.65;;;;;;;-5.14;66.97;100366.94;5076406;28;20135;-67
2023/12/12 07:25:36;;;;;;;4.78;1.33;;;;;;;-5.26;67.12;100356.88;5065470;28;20405;-67
2023/12/12 07:28:08;;;;;;;1.45;1.10;;;;;;;-5.13;67.56;100358.56;5041754;28;20048;-66
2023/12/12 07:30:34;;;;;;;2.63;1.17;;;;;;;-5.08;67.01;100348.69;5043044;28;20043;-66
2023/12/12 07:33:03;;;;;;;3.33;1.50;;;;;;;-5.40;66.79;100324.66;5042562;28;20043;-69
2023/12/12 07:35:32;;;;;;;;;;;;;;;-5.25;66.80;100372.97;5052617;28;20432;-70
2023/12/12 07:38:03;;;;;;;0.98;0.70;;;;;;;-5.64;67.28;100297.00;5042588;28;20409;-70
2023/12/12 07:40:31;;;;;;;3.97;1.70;;;;;;;-5.07;67.39;100363.13;5060886;28;20653;-71
2023/12/12 07:43:07;;;;;;;3.17;0.90;;;;;;;-5.26;67.67;100313.75;5069067;28;20131;-72
2023/12/12 07:45:36;;;;;;;3.35;1.30;;;;;;;-5.57;67.17;100263.59;5077540;28;20155;-70
2023/12/12 07:48:19;;;;;;;1.20;0.85;;;;;;;-5.75;66.34;100296.28;5061649;28;20089;-71
2023/12/12 07:50:45;;;;;;;3.35;1.35;;;;;;;-5.26;66.71;100387.34;5075941;28;20046;-70
2023/12/12 07:53:25;;;;;;;2.35;1.10;;;;;;;-5.84;66.66;100291.47;5066785;28;20040;-74
2023/12/12 07:55:53;;;;;;;2.25;1.15;;;;;;;-5.36;67.39;100339.31;5088563;28;20052;-72
2023/12/12 07:58:37;;;;;;;0.80;0.70;;;;;;;-5.52;67.09;100299.44;5096447;28;20044;-72
2023/12/12 08:01:14;;;;;;;2.25;1.15;;;;;;;-5.10;67.91;100352.78;5086438;28;20501;-68
2023/12/12 08:04:12;;;;;;;4.68;2.20;;;;;;;-5.15;67.16;100322.91;5056280;28;20047;-69
2023/12/12 08:06:38;;;;;;;0.82;0.50;;;;;;;-5.06;67.82;100324.28;5072965;28;20039;-71
2023/12/12 08:09:13;;;;;;;6.38;1.77;;;;;;;-4.83;67.08;100361.22;5085340;28;20036;-70
2023/12/12 08:11:46;;;;;;;0.98;0.60;;;;;;;-4.94;67.48;100319.06;5071564;28;20043;-69
2023/12/12 08:14:20;;;;;;;2.92;1.38;;;;;;;-5.01;65.35;100371.13;5084150;28;20048;-67
2023/12/12 08:16:47;;;;;;;0.68;0.47;;;;;;;-5.08;66.20;100353.75;5084913;28;20040;-69
2023/12/12 08:19:39;;;;;;;2.55;1.13;;;;;;;-5.80;66.29;100270.63;5067609;28;20037;-68
2023/12/12 08:22:07;;;;;;;0.37;0.33;;;;;;;-5.14;66.82;100344.97;5085473;28;20047;-71
2023/12/12 08:24:58;;;;;;;0.28;0.28;;;;;;;-5.00;66.59;100358.53;5070855;28;20035;-71
2023/12/12 08:27:23;;;;;;;2.20;0.90;;;;;;;-5.40;66.15;100291.69;5085094;28;20568;-73
2023/12/12 08:29:49;;;;;;;1.77;0.90;;;;;;;-5.13;66.68;100330.63;5087091;28;20062;-73
2023/12/12 08:32:26;;;;;;;5.50;1.60;;;;;;;-4.90;66.81;100343.88;5067966;28;20053;-63
2023/12/12 08:34:52;;;;;;;1.42;0.77;;;;;;;-4.69;67.46;100346.84;5086078;28;20440;-68
2023/12/12 08:37:38;;;;;;;1.95;0.77;;;;;;;-4.60;66.69;100356.69;5068944;28;20043;-68
2023/12/12 08:40:15;;;;;;;2.47;1.27;;;;;;;-4.59;66.61;100359.34;5084262;28;20056;-68
2023/12/12 08:42:48;;;;;;;3.00;0.98;;;;;;;-4.85;66.14;100329.78;5075386;28;20048;-67
2023/12/12 08:45:16;;;;;;;0.90;0.60;;;;;;;-4.97;66.28;100319.78;5070243;28;20059;-69
2023/12/12 08:48:02;;;;;;;3.42;1.13;;;;;;;-4.86;65.48;100350.91;5070260;28;20060;-68
2023/12/12 08:50:31;;;;;;;1.67;0.73;;;;;;;-5.02;66.33;100311.84;5087318;28;20043;-69
2023/12/12 08:52:58;;;;;;;0.57;0.57;;;;;;;-4.88;66.07;100325.41;5086428;28;20101;-67
2023/12/12 08:55:46;;;;;;;1.42;1.00;;;;;;;-4.72;66.36;100344.13;5056225;28;20524;-69
2023/12/12 08:58:15;;;;;;;0.77;0.73;;;;;;;-5.35;65.73;100245.56;5082078;28;20113;-69
2023/12/12 09:00:41;;;;;;;3.42;1.60;;;;;;;-5.35;65.33;100259.88;5076564;28;20117;-69
2023/12/12 09:03:08;;;;;;;1.27;0.73;;;;;;;-5.79;65.92;100183.63;5085026;28;20052;-71
2023/12/12 09:05:36;;;;;;;1.75;0.73;;;;;;;-5.04;66.00;100289.72;5086209;28;20098;-67
2023/12/12 09:08:05;;;;;;;0.80;0.60;;;;;;;-4.84;66.19;100286.72;5070472;28;20040;-66
2023/12/12 09:10:36;;;;;;;1.75;0.82;;;;;;;-5.21;65.76;100218.50;5082431;28;20070;-66
2023/12/12 09:13:06;;;;;;;2.42;1.20;;;;;;;-4.95;65.35;100256.38;5086827;28;20055;-67
2023/12/12 09:15:34;;;;;;;3.35;0.85;;;;;;;-4.55;65.66;100334.97;5081911;28;20051;-68
2023/12/12 09:18:11;;;;;;;3.58;1.50;;;;;;;-4.36;67.13;100311.56;5051923;28;20044;-72
2023/12/12 09:20:36;;;;;;;5.18;1.92;;;;;;;-4.25;67.08;100274.06;5082427;28;20039;-67
2023/12/12 09:23:11;;;;;;;1.60;0.68;;;;;;;-4.01;66.18;100332.22;5085537;28;20048;-66
2023/12/12 09:26:15;;;;;;;3.75;1.30;;;;;;;-4.63;65.09;100280.31;5087289;28;20044;-67
2023/12/12 09:28:47;;;;;;;2.30;1.20;;;;;;;-4.46;65.51;100324.50;5081364;28;20537;-69
2023/12/12 09:31:30;;;;;;;3.22;1.40;;;;;;;-4.42;65.71;100339.16;5089846;28;20051;-65
2023/12/12 09:33:58;;;;;;;2.63;0.55;;;;;;;-4.60;65.74;100337.25;5084492;28;20042;-67
2023/12/12 09:36:36;;;;;;;5.82;1.42;;;;;;;-5.06;64.51;100263.34;5082315;28;20036;-69
2023/12/12 09:39:07;;;;;;;1.38;0.63;;;;;;;-4.70;65.88;100324.78;5101794;28;20040;-68
2023/12/12 09:41:37;;;;;;;0.93;0.77;;;;;;;-5.06;66.95;100228.66;5084804;28;20037;-68
2023/12/12 09:44:07;;;;;;;1.42;0.77;;;;;;;-4.50;65.49;100347.97;5055104;28;20041;-66
2023/12/12 09:46:44;;;;;;;5.97;1.60;;;;;;;-4.94;65.11;100279.31;5083629;28;20040;-67
2023/12/12 09:49:16;;;;;;;2.72;1.40;;;;;;;-4.56;65.54;100315.44;5083720;28;20039;-68
2023/12/12 09:51:48;;;;;;;2.33;0.85;;;;;;;-4.48;65.72;100295.56;5085044;28;20059;-66
2023/12/12 09:54:17;;;;;;;6.18;2.67;;;;;;;-4.32;66.10;100300.81;5073694;28;20048;-70
2023/12/12 09:56:45;;;;;;;2.92;1.25;;;;;;;-4.26;65.81;100278.25;5084629;28;20044;-71
2023/12/12 09:59:14;;;;;;;1.80;0.98;;;;;;;-4.47;64.94;100302.41;5085467;28;20317;-71
2023/12/12 10:01:49;;;;;;;2.22;1.00;;;;;;;-4.55;65.18;100282.53;5081964;28;20045;-70
2023/12/12 10:04:18;;;;;;;1.35;0.85;;;;;;;-4.77;64.12;100309.97;5094745;28;20016;-72
2023/12/12 10:06:53;;;;;;;1.83;0.95;;;;;;;-5.29;64.31;100229.81;5071111;28;20046;-71
2023/12/12 10:09:42;;;;;;;1.92;0.90;;;;;;;-4.94;65.19;100296.22;5054525;28;20036;-68
2023/12/12 10:12:26;;;;;;;2.20;1.40;;;;;;;-5.02;65.43;100271.25;5074732;28;20075;-68
2023/12/12 10:14:52;;;;;;;4.60;1.50;;;;;;;-4.97;65.81;100270.66;5088292;28;20051;-67
2023/12/12 10:17:27;;;;;;;2.80;1.35;;;;;;;-4.84;65.48;100294.34;5083632;28;20032;-63
2023/12/12 10:20:10;;;;;;;4.53;2.05;;;;;;;-4.53;66.45;100333.41;5088120;28;20100;-68
2023/12/12 10:22:39;;;;;;;4.00;1.88;;;;;;;-4.62;65.51;100312.53;5072255;28;20047;-67
2023/12/12 10:25:14;;;;;;;5.00;1.17;;;;;;;-4.67;66.05;100313.94;5074521;28;20064;-67
2023/12/12 10:27:53;;;;;;;4.13;1.10;;;;;;;-4.69;64.55;100329.06;5090185;28;20091;-69
2023/12/12 10:30:45;;;;;;;1.55;0.90;;;;;;;-4.59;65.60;100346.63;5085859;28;20036;-68
2023/12/12 10:33:18;;;;;;;2.42;0.75;;;;;;;-5.01;64.74;100277.22;5054284;28;20083;-68
2023/12/12 10:35:47;;;;;;;4.70;1.70;;;;;;;-4.71;64.67;100338.25;5077203;28;20056;-71
2023/12/12 10:38:13;;;;;;;5.13;1.23;;;;;;;-5.16;65.13;100261.91;5070726;28;20060;-68
2023/12/12 10:40:42;;;;;;;1.98;1.10;;;;;;;-4.91;65.53;100292.19;5063591;28;20135;-69
2023/12/12 10:43:17;;;;;;;1.98;1.10;;;;;;;-4.78;65.71;100291.28;5065931;28;20133;-67
2023/12/12 10:45:44;;;;;;;1.17;0.63;;;;;;;-5.03;65.62;100228.88;5088024;28;20040;-68
2023/12/12 10:48:17;;;;;;;1.20;0.70;;;;;;;-4.65;65.46;100282.75;5088388;28;20059;-70
2023/12/12 10:51:04;;;;;;;3.47;1.10;;;;;;;-4.59;64.12;100289.84;5085943;28;20093;-70
2023/12/12 10:53:31;;;;;;;2.88;0.90;;;;;;;-5.22;63.88;100233.59;5061100;28;20828;-66
2023/12/12 10:55:58;;;;;;;1.65;0.80;;;;;;;-4.74;65.18;100308.47;5085977;28;20016;-68
2023/12/12 10:58:25;;;;;;;1.42;0.82;;;;;;;-5.04;64.76;100262.66;5085686;28;20079;-68
2023/12/12 11:00:52;;;;;;;3.22;1.40;;;;;;;-5.14;63.29;100296.75;5068144;28;20146;-67
2023/12/12 11:03:29;;;;;;;2.97;0.95;;;;;;;-5.23;64.82;100288.56;5061090;28;20046;-64
2023/12/12 11:05:59;;;;;;;4.55;1.27;;;;;;;-5.52;64.74;100244.50;5089841;28;20044;-64
2023/12/12 11:08:32;;;;;;;9.90;2.00;;;;;;;-5.60;65.63;100220.28;5091489;28;20044;-65
2023/12/12 11:11:01;;;;;;;2.38;0.90;;;;;;;-5.02;65.29;100316.06;5088314;28;20040;-66
2023/12/12 11:13:33;;;;;;;1.67;1.05;;;;;;;-5.09;64.88;100280.94;5064932;28;20131;-65
2023/12/12 11:16:12;;;;;;;4.07;0.90;;;;;;;-4.77;65.00;100340.44;5078796;28;20040;-66
2023/12/12 11:18:39;;;;;;;1.52;1.00;;;;;;;-5.10;64.55;100299.47;5105375;28;20131;-66
2023/12/12 11:21:05;;;;;;;4.90;1.50;;;;;;;-5.09;65.24;100294.50;5084747;28;20525;-67
2023/12/12 11:23:42;;;;;;;6.18;1.48;;;;;;;-4.58;65.97;100355.13;5067323;28;20109;-66
2023/12/12 11:26:10;;;;;;;1.30;0.60;;;;;;;-5.24;64.96;100263.97;5070164;28;20108;-65
2023/12/12 11:28:58;;;;;;;1.55;0.82;;;;;;;-4.87;65.36;100331.38;5081459;28;20078;-71
2023/12/12 11:31:36;;;;;;;0.90;0.50;;;;;;;-5.03;65.81;100278.78;5064174;28;20050;-67
2023/12/12 11:34:05;;;;;;;4.65;1.52;;;;;;;-4.67;65.85;100337.66;5052802;28;20070;-67
2023/12/12 11:36:51;;;;;;;1.08;0.63;;;;;;;-4.69;65.15;100340.13;5083631;28;20066;-67
2023/12/12 11:39:41;;;;;;;1.48;0.47;;;;;;;-4.77;65.10;100332.81;5057042;28;20046;-67
2023/12/12 11:42:39;;;;;;;1.92;0.98;;;;;;;-4.79;64.99;100347.06;5066895;28;20043;-66
2023/12/12 11:45:29;;;;;;;1.10;0.88;;;;;;;-5.08;65.11;100326.72;5067239;28;20322;-66